createdAt,value
2022-11-14T00:01:25.930Z,65.90
2022-11-14T00:03:55.395Z,65.90
2022-11-14T00:06:24.521Z,65.70
2022-11-14T00:08:52.581Z,65.70
2022-11-14T00:11:20.686Z,65.70
2022-11-14T00:13:48.732Z,65.70
2022-11-14T00:16:16.873Z,65.80
2022-11-14T00:18:44.999Z,65.80
2022-11-14T00:21:14.474Z,65.70
2022-11-14T00:23:42.597Z,65.70
2022-11-14T00:26:10.760Z,65.60
2022-11-14T00:28:38.824Z,65.50
2022-11-14T00:31:07.312Z,65.50
2022-11-14T00:33:35.394Z,65.50
2022-11-14T00:36:03.518Z,65.50
2022-11-14T00:38:33.031Z,65.50
2022-11-14T00:41:01.130Z,65.50
2022-11-14T00:43:29.232Z,65.60
2022-11-14T00:45:57.379Z,65.60
2022-11-14T00:48:25.533Z,65.70
2022-11-14T00:50:53.574Z,65.70
2022-11-14T00:53:21.741Z,65.60
2022-11-14T00:55:51.205Z,65.60
2022-11-14T00:58:19.377Z,65.70
2022-11-14T01:00:47.546Z,65.60
2022-11-14T01:03:15.780Z,65.70
2022-11-14T01:05:44.524Z,65.40
2022-11-14T01:08:13.962Z,65.40
2022-11-14T01:10:43.327Z,65.30
2022-11-14T01:13:12.981Z,65.40
2022-11-14T01:15:41.533Z,65.40
2022-11-14T01:18:12.142Z,65.50
2022-11-14T01:20:40.881Z,65.60
2022-11-14T01:23:09.866Z,65.50
2022-11-14T01:25:39.609Z,65.60
2022-11-14T01:28:09.023Z,65.60
2022-11-14T01:30:38.874Z,65.60
2022-11-14T01:33:07.079Z,65.60
2022-11-14T01:35:37.140Z,65.70
2022-11-14T01:38:06.569Z,65.70
2022-11-14T01:40:34.948Z,65.80
2022-11-14T01:43:25.692Z,65.90
2022-11-14T01:45:57.561Z,66.10
2022-11-14T01:48:32.165Z,66.60
2022-11-14T01:51:04.318Z,66.10
2022-11-14T01:53:32.731Z,66.20
2022-11-14T01:56:05.482Z,66.30
2022-11-14T01:58:36.511Z,66.50
2022-11-14T02:01:06.362Z,66.50
2022-11-14T02:03:36.643Z,66.60
2022-11-14T02:06:07.414Z,66.70
2022-11-14T02:08:36.228Z,66.70
2022-11-14T02:11:04.331Z,66.70
2022-11-14T02:13:32.568Z,66.60
2022-11-14T02:16:00.709Z,66.70
2022-11-14T02:18:30.348Z,66.60
2022-11-14T02:21:00.020Z,66.60
2022-11-14T02:23:29.668Z,66.50
2022-11-14T02:25:58.100Z,66.50
2022-11-14T02:28:27.615Z,66.50
2022-11-14T02:30:56.237Z,66.30
2022-11-14T02:33:24.487Z,66.30
2022-11-14T02:35:52.655Z,66.30
2022-11-14T02:38:22.037Z,66.40
2022-11-14T02:40:50.220Z,66.40
2022-11-14T02:43:18.285Z,66.30
2022-11-14T02:45:46.470Z,66.20
2022-11-14T02:48:14.745Z,66.20
2022-11-14T02:50:42.817Z,66.20
2022-11-14T02:53:10.961Z,66.10
2022-11-14T02:55:40.465Z,66.10
2022-11-14T02:58:08.516Z,66.10
2022-11-14T03:00:38.549Z,66.00
2022-11-14T03:03:16.142Z,66.10
2022-11-14T03:05:44.238Z,66.10
2022-11-14T03:08:12.391Z,66.20
2022-11-14T03:10:41.908Z,66.20
2022-11-14T03:13:09.973Z,66.20
2022-11-14T03:15:38.643Z,66.70
2022-11-14T03:18:06.740Z,66.00
2022-11-14T03:20:35.490Z,65.80
2022-11-14T03:23:04.172Z,65.80
2022-11-14T03:25:32.486Z,65.90
2022-11-14T03:28:01.941Z,65.90
2022-11-14T03:30:30.089Z,65.90
2022-11-14T03:32:58.347Z,65.80
2022-11-14T03:35:26.475Z,65.90
2022-11-14T03:37:56.638Z,65.90
2022-11-14T03:40:25.068Z,65.90
2022-11-14T03:42:53.128Z,65.90
2022-11-14T03:45:22.620Z,66.00
2022-11-14T03:47:50.702Z,66.00
2022-11-14T03:50:19.015Z,66.10
2022-11-14T03:52:49.965Z,66.10
2022-11-14T03:55:18.394Z,66.10
2022-11-14T03:57:46.531Z,66.10
2022-11-14T04:00:15.206Z,66.00
2022-11-14T04:02:44.645Z,66.10
2022-11-14T04:05:12.818Z,66.10
2022-11-14T04:07:41.083Z,66.00
2022-11-14T04:10:09.811Z,65.90
2022-11-14T04:12:37.954Z,66.00
2022-11-14T04:15:07.089Z,66.00
2022-11-14T04:17:39.609Z,66.10
2022-11-14T04:20:10.854Z,66.10
2022-11-14T04:22:39.161Z,66.20
2022-11-14T04:25:08.431Z,66.90
2022-11-14T04:27:36.982Z,66.30
2022-11-14T04:30:05.992Z,66.50
2022-11-14T04:32:34.298Z,66.40
2022-11-14T04:35:02.653Z,66.40
2022-11-14T04:37:32.131Z,66.20
2022-11-14T04:40:02.477Z,66.20
2022-11-14T04:42:30.862Z,66.10
2022-11-14T04:44:59.036Z,66.10
2022-11-14T04:47:27.172Z,66.20
2022-11-14T04:49:55.237Z,66.40
2022-11-14T04:52:23.360Z,66.50
2022-11-14T04:54:52.794Z,66.50
2022-11-14T04:57:20.933Z,66.60
2022-11-14T04:59:49.018Z,66.50
2022-11-14T05:02:17.079Z,66.40
2022-11-14T05:04:47.153Z,66.50
2022-11-14T05:07:16.317Z,66.50
2022-11-14T05:09:44.518Z,66.60
2022-11-14T05:12:14.027Z,66.60
2022-11-14T05:14:42.099Z,66.60
2022-11-14T05:17:10.180Z,66.50
2022-11-14T05:19:38.339Z,66.50
2022-11-14T05:22:06.412Z,66.50
2022-11-14T05:24:34.516Z,66.50
2022-11-14T05:27:02.701Z,66.30
2022-11-14T05:29:32.222Z,66.40
2022-11-14T05:32:00.721Z,66.40
2022-11-14T05:34:29.082Z,66.40
2022-11-14T05:36:57.214Z,66.50
2022-11-14T05:39:25.333Z,66.60
2022-11-14T05:41:53.465Z,66.70
2022-11-14T05:44:21.537Z,66.80
2022-11-14T05:46:51.027Z,66.80
2022-11-14T05:49:21.947Z,66.90
2022-11-14T05:51:50.508Z,66.90
2022-11-14T05:54:18.600Z,67.00
2022-11-14T05:56:46.770Z,67.00
2022-11-14T05:59:14.847Z,67.00
2022-11-14T06:01:42.953Z,67.00
2022-11-14T06:04:14.050Z,66.90
2022-11-14T06:06:42.314Z,66.90
2022-11-14T06:09:10.409Z,66.90
2022-11-14T06:11:38.499Z,67.00
2022-11-14T06:14:10.523Z,66.90
2022-11-14T06:16:38.976Z,67.20
2022-11-14T06:19:07.131Z,67.20
2022-11-14T06:21:36.542Z,67.30
2022-11-14T06:24:06.019Z,67.30
2022-11-14T06:26:34.306Z,67.30
2022-11-14T06:29:02.454Z,67.40
2022-11-14T06:31:30.598Z,67.50
2022-11-14T06:33:58.741Z,67.70
2022-11-14T06:36:26.946Z,67.70
2022-11-14T06:38:56.435Z,67.90
2022-11-14T06:41:24.902Z,68.00
2022-11-14T06:43:54.657Z,68.10
2022-11-14T06:46:23.616Z,68.00
2022-11-14T06:48:52.413Z,67.80
2022-11-14T06:51:20.800Z,67.70
2022-11-14T06:53:48.914Z,67.70
2022-11-14T06:56:20.154Z,67.80
2022-11-14T06:58:49.886Z,67.90
2022-11-14T07:01:19.692Z,67.90
2022-11-14T07:03:48.151Z,68.00
2022-11-14T07:06:19.259Z,68.20
2022-11-14T07:08:47.551Z,68.20
2022-11-14T07:11:23.561Z,68.30
2022-11-14T07:13:51.742Z,68.30
2022-11-14T07:16:20.153Z,68.50
2022-11-14T07:18:48.272Z,68.60
2022-11-14T07:21:16.401Z,68.70
2022-11-14T07:23:44.458Z,68.90
2022-11-14T07:26:13.395Z,69.00
2022-11-14T07:28:48.124Z,69.10
2022-11-14T07:31:20.360Z,69.20
2022-11-14T07:33:49.162Z,69.30
2022-11-14T07:36:18.528Z,69.20
2022-11-14T07:38:46.624Z,69.30
2022-11-14T07:41:16.790Z,69.40
2022-11-14T07:43:46.414Z,69.40
2022-11-14T07:46:16.434Z,70.00
2022-11-14T07:48:45.389Z,69.30
2022-11-14T07:51:16.816Z,69.20
2022-11-14T07:53:45.728Z,69.30
2022-11-14T07:56:14.027Z,69.30
2022-11-14T07:58:43.151Z,69.20
2022-11-14T08:01:14.310Z,69.20
2022-11-14T08:03:45.882Z,69.20
2022-11-14T08:06:16.906Z,69.20
2022-11-14T08:08:45.047Z,69.10
2022-11-14T08:11:15.075Z,69.00
2022-11-14T08:13:51.364Z,69.10
2022-11-14T08:16:20.848Z,69.10
2022-11-14T08:18:48.931Z,69.10
2022-11-14T08:21:17.063Z,69.00
2022-11-14T08:23:45.745Z,69.10
2022-11-14T08:26:13.867Z,69.00
2022-11-14T08:28:41.984Z,69.10
2022-11-14T08:31:10.342Z,69.00
2022-11-14T08:33:40.364Z,69.00
2022-11-14T08:36:09.109Z,69.70
2022-11-14T08:38:37.439Z,69.00
2022-11-14T08:41:05.947Z,69.10
2022-11-14T08:43:34.482Z,69.20
2022-11-14T08:46:04.293Z,69.20
2022-11-14T08:48:33.571Z,69.30
2022-11-14T08:51:06.093Z,69.30
2022-11-14T08:53:36.190Z,69.50
2022-11-14T08:56:04.948Z,69.50
2022-11-14T08:58:33.849Z,69.60
2022-11-14T09:01:02.885Z,69.70
2022-11-14T09:03:31.054Z,69.80
2022-11-14T09:05:59.487Z,69.70
2022-11-14T09:08:29.914Z,69.80
2022-11-14T09:11:05.332Z,69.90
2022-11-14T09:13:34.646Z,69.90
2022-11-14T09:16:03.046Z,69.70
2022-11-14T09:18:32.268Z,69.70
2022-11-14T09:21:01.822Z,69.70
2022-11-14T09:23:31.992Z,69.90
2022-11-14T09:26:03.917Z,69.90
2022-11-14T09:28:32.091Z,69.90
2022-11-14T09:31:03.521Z,70.00
2022-11-14T09:33:32.053Z,70.20
2022-11-14T09:36:00.706Z,70.20
2022-11-14T09:38:32.782Z,70.30
2022-11-14T09:41:23.748Z,70.40
2022-11-14T09:44:20.703Z,70.50
2022-11-14T09:46:53.581Z,70.50
2022-11-14T09:49:27.974Z,70.40
2022-11-14T09:52:02.143Z,70.40
2022-11-14T09:54:46.782Z,70.40
2022-11-14T09:57:18.801Z,70.60
2022-11-14T09:59:47.289Z,70.60
2022-11-14T10:02:26.573Z,70.50
2022-11-14T10:05:08.001Z,70.60
2022-11-14T10:07:46.445Z,70.60
2022-11-14T10:10:25.107Z,70.60
2022-11-14T10:13:04.625Z,70.50
2022-11-14T10:15:42.615Z,70.60
2022-11-14T10:18:24.359Z,70.60
2022-11-14T10:20:56.234Z,70.60
2022-11-14T10:23:34.088Z,70.50
2022-11-14T10:26:15.336Z,70.60
2022-11-14T10:28:55.129Z,70.40
2022-11-14T10:31:34.980Z,70.50
2022-11-14T10:34:07.098Z,70.70
2022-11-14T10:36:55.191Z,70.60
2022-11-14T10:39:27.604Z,70.50
2022-11-14T10:42:05.986Z,70.40
2022-11-14T10:44:43.910Z,70.30
2022-11-14T10:47:15.550Z,70.30
2022-11-14T10:49:47.849Z,70.40
2022-11-14T10:52:19.547Z,70.30
2022-11-14T10:54:51.286Z,70.20
2022-11-14T10:57:21.616Z,70.20
2022-11-14T10:59:51.195Z,70.30
2022-11-14T11:02:19.407Z,70.20
2022-11-14T11:04:47.569Z,70.20
2022-11-14T11:07:42.241Z,70.20
2022-11-14T11:10:40.388Z,70.30
2022-11-14T11:13:13.219Z,70.30
2022-11-14T11:15:44.202Z,70.20
2022-11-14T11:18:28.659Z,70.10
2022-11-14T11:21:06.420Z,70.00
2022-11-14T11:23:35.099Z,69.90
2022-11-14T11:26:07.686Z,70.00
2022-11-14T11:28:37.244Z,69.90
2022-11-14T11:31:08.887Z,69.80
2022-11-14T11:33:38.222Z,69.80
2022-11-14T13:35:04.259Z,65.50
2022-11-14T13:37:49.554Z,67.10
2022-11-14T13:40:24.398Z,68.90
2022-11-14T13:43:01.791Z,70.00
2022-11-14T13:45:51.407Z,70.70
2022-11-14T13:48:55.176Z,71.00
2022-11-14T13:51:42.728Z,71.10
2022-11-14T13:54:17.543Z,71.00
2022-11-14T13:56:58.900Z,71.10
2022-11-14T13:59:54.325Z,70.90
2022-11-14T14:02:46.258Z,69.60
2022-11-14T14:05:26.283Z,69.50
2022-11-14T14:08:04.789Z,69.40
2022-11-14T14:10:42.489Z,70.10
2022-11-14T14:13:23.210Z,69.30
2022-11-14T14:15:59.379Z,69.20
2022-11-14T14:18:44.416Z,69.00
2022-11-14T14:21:22.354Z,69.00
2022-11-14T14:24:03.550Z,68.80
2022-11-14T14:26:40.357Z,68.70
2022-11-14T14:29:23.568Z,68.60
2022-11-14T14:31:52.111Z,68.50
2022-11-14T14:34:25.335Z,68.40
2022-11-14T14:36:55.455Z,68.30
2022-11-14T14:39:26.401Z,68.20
2022-11-14T14:41:56.934Z,68.10
2022-11-14T14:44:27.856Z,68.10
2022-11-14T14:46:56.156Z,68.10
2022-11-14T14:49:28.018Z,68.00
2022-11-14T14:51:58.767Z,68.00
2022-11-14T14:54:30.722Z,67.90
2022-11-14T14:57:01.054Z,67.90
2022-11-14T14:59:31.793Z,67.90
2022-11-14T15:02:00.013Z,67.90
2022-11-14T15:04:30.117Z,67.80
2022-11-14T15:06:58.403Z,68.00
2022-11-14T15:09:29.765Z,67.90
2022-11-14T15:12:00.364Z,67.80
2022-11-14T15:14:32.334Z,67.80
2022-11-14T15:17:01.289Z,67.90
2022-11-14T15:19:36.458Z,68.00
2022-11-14T15:22:06.908Z,68.00
2022-11-14T15:24:36.402Z,68.00
2022-11-14T15:27:06.406Z,68.00
2022-11-14T15:29:34.678Z,68.20
2022-11-14T15:32:05.279Z,68.20
2022-11-14T15:34:35.194Z,68.30
2022-11-14T15:37:23.788Z,68.20
2022-11-14T15:39:53.457Z,68.10
2022-11-14T15:42:28.798Z,68.20
2022-11-14T15:44:57.405Z,68.10
2022-11-14T15:47:28.142Z,68.10
2022-11-14T15:50:02.331Z,68.20
2022-11-14T15:52:37.250Z,68.20
2022-11-14T15:55:13.938Z,68.20
2022-11-14T15:57:42.083Z,68.30
2022-11-14T16:00:13.866Z,68.30
2022-11-14T16:02:46.370Z,68.30
2022-11-14T16:05:16.532Z,68.30
2022-11-14T16:07:44.759Z,68.40
2022-11-14T16:10:17.136Z,68.50
2022-11-14T16:12:49.486Z,68.30
2022-11-14T16:15:21.654Z,68.30
2022-11-14T16:17:51.279Z,68.20
2022-11-14T16:20:21.254Z,68.20
2022-11-14T16:22:50.623Z,68.30
2022-11-14T16:25:22.366Z,68.30
2022-11-14T16:27:50.487Z,68.30
2022-11-14T16:30:20.656Z,68.30
2022-11-14T16:32:50.497Z,68.30
2022-11-14T16:35:20.330Z,68.40
2022-11-14T16:37:49.352Z,68.50
2022-11-14T16:40:21.389Z,68.50
2022-11-14T16:42:50.230Z,68.40
2022-11-14T16:45:20.292Z,68.50
2022-11-14T16:47:48.552Z,68.50
2022-11-14T16:50:17.098Z,68.50
2022-11-14T16:52:45.173Z,68.50
2022-11-14T16:55:14.055Z,68.70
2022-11-14T16:57:43.490Z,68.70
2022-11-14T17:00:13.576Z,68.70
2022-11-14T17:02:41.885Z,68.70
2022-11-14T17:05:10.317Z,68.90
2022-11-14T17:07:38.585Z,68.90
2022-11-14T17:10:07.852Z,68.90
2022-11-14T17:12:35.965Z,68.90
2022-11-14T17:15:06.296Z,68.80
2022-11-14T17:17:34.561Z,68.80
2022-11-14T17:20:02.791Z,68.80
2022-11-14T17:22:30.877Z,68.80
2022-11-14T17:24:58.957Z,68.80
2022-11-14T17:27:27.059Z,68.90
2022-11-14T17:29:55.127Z,68.90
2022-11-14T17:32:24.541Z,68.90
2022-11-14T17:34:52.618Z,68.90
2022-11-14T17:37:20.952Z,68.80
2022-11-14T17:39:49.092Z,68.90
2022-11-14T17:42:17.156Z,68.60
2022-11-14T17:44:45.209Z,68.60
2022-11-14T17:47:13.343Z,68.60
2022-11-14T17:49:42.862Z,68.50
2022-11-14T17:52:11.554Z,68.50
2022-11-14T17:54:39.690Z,68.50
2022-11-14T17:57:08.302Z,68.50
2022-11-14T17:59:37.194Z,68.50
2022-11-14T18:02:05.448Z,68.40
2022-11-14T18:04:33.606Z,68.30
2022-11-14T18:07:03.156Z,68.20
2022-11-14T18:09:31.569Z,68.20
2022-11-14T18:11:59.694Z,68.30
2022-11-14T18:14:27.784Z,68.20
2022-11-14T18:17:12.281Z,68.20
2022-11-14T18:19:41.179Z,68.00
2022-11-14T18:22:10.686Z,67.90
2022-11-14T18:24:41.358Z,67.90
2022-11-14T18:27:09.388Z,67.90
2022-11-14T18:29:37.510Z,67.90
2022-11-14T18:32:05.994Z,67.90
2022-11-14T18:34:36.728Z,67.80
2022-11-14T18:37:04.932Z,67.80
2022-11-14T18:39:34.422Z,67.80
2022-11-14T18:42:02.500Z,67.60
2022-11-14T18:44:30.907Z,67.60
2022-11-14T18:46:58.967Z,67.50
2022-11-14T18:49:28.340Z,67.40
2022-11-14T18:51:56.707Z,67.30
2022-11-14T18:54:24.885Z,67.20
2022-11-14T18:56:54.436Z,67.10
2022-11-14T18:59:22.541Z,67.00
2022-11-14T19:01:50.707Z,67.00
2022-11-14T19:04:19.618Z,67.00
2022-11-14T19:06:47.901Z,66.90
2022-11-14T19:09:22.065Z,66.90
2022-11-14T19:12:07.698Z,67.00
2022-11-14T19:14:37.147Z,66.90
2022-11-14T19:17:06.993Z,66.90
2022-11-14T19:19:35.082Z,66.80
2022-11-14T19:22:03.956Z,66.80
2022-11-14T19:24:32.275Z,66.80
2022-11-14T19:27:00.354Z,66.90
2022-11-14T19:29:28.446Z,66.70
2022-11-14T19:31:57.814Z,66.70
2022-11-14T19:34:25.888Z,66.80
2022-11-14T19:37:02.024Z,66.80
2022-11-14T19:39:30.450Z,66.70
2022-11-14T19:41:58.545Z,66.70
2022-11-14T19:44:26.658Z,66.60
2022-11-14T19:46:54.939Z,66.60
2022-11-14T19:49:24.428Z,66.60
2022-11-14T19:51:52.610Z,66.50
2022-11-14T19:54:20.830Z,66.60
2022-11-14T19:56:48.968Z,66.60
2022-11-14T19:59:22.896Z,66.70
2022-11-14T20:01:55.164Z,66.70
2022-11-14T20:04:24.962Z,66.90
2022-11-14T20:06:53.171Z,66.80
2022-11-14T20:09:21.371Z,66.90
2022-11-14T20:11:49.537Z,66.80
2022-11-14T20:14:17.844Z,67.00
2022-11-14T20:16:46.680Z,67.00
2022-11-14T20:19:15.991Z,67.10
2022-11-14T20:21:45.555Z,67.10
2022-11-14T20:24:17.527Z,67.20
2022-11-14T20:26:45.950Z,67.30
2022-11-14T20:29:14.119Z,67.30
2022-11-14T20:31:42.162Z,67.40
2022-11-14T20:34:11.969Z,67.40
2022-11-14T20:37:08.720Z,67.50
2022-11-14T20:39:29.421Z,67.50
2022-11-14T20:41:57.633Z,67.60
2022-11-14T20:44:25.805Z,67.60
2022-11-14T20:46:55.411Z,67.60
2022-11-14T20:49:23.525Z,67.70
2022-11-14T20:51:51.622Z,67.70
2022-11-14T20:54:19.728Z,67.80
2022-11-14T20:56:49.161Z,67.80
2022-11-14T20:59:17.233Z,67.80
2022-11-14T21:01:45.385Z,67.80
2022-11-14T21:04:13.503Z,67.90
2022-11-14T21:06:41.642Z,67.90
2022-11-14T21:09:10.538Z,67.90
2022-11-14T21:11:38.650Z,67.90
2022-11-14T21:14:09.061Z,68.00
2022-11-14T21:16:39.712Z,68.00
2022-11-14T21:19:08.457Z,68.00
2022-11-14T21:21:38.635Z,68.10
2022-11-14T21:24:07.700Z,68.20
2022-11-14T21:26:39.070Z,68.20
2022-11-14T21:29:12.343Z,68.20
2022-11-14T21:31:41.913Z,68.40
2022-11-14T21:34:12.992Z,68.40
2022-11-14T21:36:46.067Z,68.50
2022-11-14T21:39:16.458Z,68.50
2022-11-14T21:41:45.682Z,68.50
2022-11-14T21:44:17.569Z,68.60
2022-11-14T21:46:48.379Z,69.40
2022-11-14T21:49:17.601Z,68.90
2022-11-14T21:51:45.772Z,68.90
2022-11-14T21:54:13.921Z,69.00
2022-11-14T21:56:41.986Z,69.10
2022-11-14T21:59:14.834Z,69.20
2022-11-14T22:02:04.001Z,69.30
2022-11-14T22:04:32.878Z,69.30
2022-11-14T22:07:02.906Z,69.40
2022-11-14T22:09:31.419Z,69.60
2022-11-14T22:12:00.129Z,69.70
2022-11-14T22:14:29.163Z,69.70
2022-11-14T22:16:58.882Z,69.90
2022-11-14T22:19:27.043Z,70.00
2022-11-14T22:21:55.343Z,70.10
2022-11-14T22:24:23.600Z,70.20
2022-11-14T22:26:51.778Z,70.30
2022-11-14T22:29:19.982Z,70.50
2022-11-14T22:31:48.140Z,70.60
2022-11-14T22:34:17.584Z,70.70
2022-11-14T22:36:45.705Z,70.80
2022-11-14T22:39:13.761Z,70.80
2022-11-14T22:41:41.863Z,70.90
2022-11-14T22:44:09.956Z,71.00
2022-11-14T22:46:38.020Z,71.10
2022-11-14T22:49:06.101Z,71.20
2022-11-14T22:51:35.510Z,71.30
2022-11-14T22:54:03.551Z,71.40
2022-11-14T22:56:31.616Z,71.40
2022-11-14T22:59:00.519Z,71.60
2022-11-14T23:01:31.029Z,71.70
2022-11-14T23:04:01.057Z,71.80
2022-11-14T23:06:30.288Z,71.80
2022-11-14T23:09:00.295Z,71.80
2022-11-14T23:11:30.314Z,71.90
2022-11-14T23:13:59.874Z,71.90
2022-11-14T23:16:30.106Z,72.10
2022-11-14T23:18:59.646Z,72.10
2022-11-14T23:21:29.137Z,72.20
2022-11-14T23:24:00.092Z,72.20
2022-11-14T23:26:29.770Z,72.30
2022-11-14T23:28:58.178Z,72.50
2022-11-14T23:31:27.058Z,72.40
2022-11-14T23:33:57.697Z,72.70
2022-11-14T23:36:25.893Z,72.80
2022-11-14T23:38:54.929Z,72.90
2022-11-14T23:41:26.601Z,73.00
2022-11-14T23:43:54.776Z,72.90
2022-11-14T23:46:22.954Z,73.20
2022-11-14T23:48:53.165Z,73.30
2022-11-14T23:51:21.297Z,73.30
2022-11-14T23:53:49.448Z,73.40
2022-11-14T23:56:17.633Z,73.40
2022-11-14T23:58:47.091Z,73.40
